sensor_id;sensor_type;location;lat;lon;timestamp;temperature;humidity
55219;DHT22;65463;43.864;20.136;2024-03-02T01:24:51;282.40;2278.40
55219;DHT22;65463;43.864;20.136;2024-03-02T01:27:17;282.20;2278.40
55219;DHT22;65463;43.864;20.136;2024-03-02T01:29:43;282.10;2278.40
55219;DHT22;65463;43.864;20.136;2024-03-02T01:32:08;282.40;2278.40
55219;DHT22;65463;43.864;20.136;2024-03-02T01:34:34;282.40;2278.40
55219;DHT22;65463;43.864;20.136;2024-03-02T01:37:00;282.50;2278.40
55219;DHT22;65463;43.864;20.136;2024-03-02T01:39:26;307.20;2304.00
55219;DHT22;65463;43.864;20.136;2024-03-02T01:41:52;307.20;2304.00
55219;DHT22;65463;43.864;20.136;2024-03-02T01:44:17;307.20;2304.00
55219;DHT22;65463;43.864;20.136;2024-03-02T01:46:43;307.20;2304.00
55219;DHT22;65463;43.864;20.136;2024-03-02T01:49:09;282.50;2278.40
55219;DHT22;65463;43.864;20.136;2024-03-02T01:51:35;282.40;2278.40
55219;DHT22;65463;43.864;20.136;2024-03-02T01:54:01;282.10;2278.40
55219;DHT22;65463;43.864;20.136;2024-03-02T01:56:27;282.30;2278.40
55219;DHT22;65463;43.864;20.136;2024-03-02T01:58:53;282.40;2278.40
55219;DHT22;65463;43.864;20.136;2024-03-02T02:01:18;282.50;2278.40
55219;DHT22;65463;43.864;20.136;2024-03-02T02:03:44;282.50;2278.40
55219;DHT22;65463;43.864;20.136;2024-03-02T02:06:10;282.50;2278.40
55219;DHT22;65463;43.864;20.136;2024-03-02T02:08:39;282.50;2278.40
55219;DHT22;65463;43.864;20.136;2024-03-02T02:11:05;282.40;2278.40
55219;DHT22;65463;43.864;20.136;2024-03-02T02:13:30;282.40;2278.40
55219;DHT22;65463;43.864;20.136;2024-03-02T02:16:05;282.40;2278.40
55219;DHT22;65463;43.864;20.136;2024-03-02T02:18:31;282.20;2278.40
55219;DHT22;65463;43.864;20.136;2024-03-02T07:31:19;512.90;1740.80
55219;DHT22;65463;43.864;20.136;2024-03-02T07:33:45;538.20;1689.60
55219;DHT22;65463;43.864;20.136;2024-03-02T07:50:52;589.50;1484.80
55219;DHT22;65463;43.864;20.136;2024-03-02T07:53:18;589.60;1484.80
55219;DHT22;65463;43.864;20.136;2024-03-02T07:55:44;589.70;1433.60
55219;DHT22;65463;43.864;20.136;2024-03-02T08:12:51;614.70;1433.60
55219;DHT22;65463;43.864;20.136;2024-03-02T08:17:44;589.10;1382.40
55219;DHT22;65463;43.864;20.136;2024-03-02T08:20:15;563.70;1561.60
55219;DHT22;65463;43.864;20.136;2024-03-02T08:22:41;588.90;1484.80
55219;DHT22;65463;43.864;20.136;2024-03-02T08:25:07;589.30;1433.60
55219;DHT22;65463;43.864;20.136;2024-03-02T08:30:01;640.40;1331.20
55219;DHT22;65463;43.864;20.136;2024-03-02T08:32:29;640.40;1305.60
55219;DHT22;65463;43.864;20.136;2024-03-02T08:34:55;614.70;1331.20
55219;DHT22;65463;43.864;20.136;2024-03-02T08:37:20;589.00;1459.20
55219;DHT22;65463;43.864;20.136;2024-03-02T08:39:46;589.60;1382.40
55219;DHT22;65463;43.864;20.136;2024-03-02T08:42:12;614.40;1408.00
55219;DHT22;65463;43.864;20.136;2024-03-02T08:44:38;614.80;1382.40
55219;DHT22;65463;43.864;20.136;2024-03-02T08:47:04;589.60;1382.40
55219;DHT22;65463;43.864;20.136;2024-03-02T08:49:30;589.10;1510.40
55219;DHT22;65463;43.864;20.136;2024-03-02T08:51:55;589.70;1459.20
55219;DHT22;65463;43.864;20.136;2024-03-02T08:54:22;614.70;1459.20
55219;DHT22;65463;43.864;20.136;2024-03-02T08:56:49;589.50;1433.60
55219;DHT22;65463;43.864;20.136;2024-03-02T08:59:16;614.40;1408.00
55219;DHT22;65463;43.864;20.136;2024-03-02T09:01:42;615.20;1280.00
55219;DHT22;65463;43.864;20.136;2024-03-02T09:06:35;640.10;1331.20
55219;DHT22;65463;43.864;20.136;2024-03-02T09:18:47;666.00;1254.40
55219;DHT22;65463;43.864;20.136;2024-03-02T09:26:07;692.10;1126.40
55219;DHT22;65463;43.864;20.136;2024-03-02T09:40:45;640.40;1152.00
55219;DHT22;65463;43.864;20.136;2024-03-02T09:43:12;640.30;1203.20
55219;DHT22;65463;43.864;20.136;2024-03-02T09:45:39;615.00;1177.60
55219;DHT22;65463;43.864;20.136;2024-03-02T09:48:05;614.90;1228.80
55219;DHT22;65463;43.864;20.136;2024-03-02T09:50:31;614.60;1203.20
55219;DHT22;65463;43.864;20.136;2024-03-02T09:52:58;614.50;1228.80
55219;DHT22;65463;43.864;20.136;2024-03-02T09:55:24;615.10;1228.80
55219;DHT22;65463;43.864;20.136;2024-03-02T09:57:50;640.00;1152.00
55219;DHT22;65463;43.864;20.136;2024-03-02T10:00:17;640.90;1126.40
55219;DHT22;65463;43.864;20.136;2024-03-02T10:24:52;716.80;1100.80
55219;DHT22;65463;43.864;20.136;2024-03-02T11:14:30;640.00;1152.00
55219;DHT22;65463;43.864;20.136;2024-03-02T11:16:59;640.60;1203.20
55219;DHT22;65463;43.864;20.136;2024-03-02T11:46:46;666.20;1203.20
55219;DHT22;65463;43.864;20.136;2024-03-02T12:06:31;666.20;1100.80
55219;DHT22;65463;43.864;20.136;2024-03-02T12:08:57;666.20;1100.80
55219;DHT22;65463;43.864;20.136;2024-03-02T13:15:15;589.00;1305.60
55219;DHT22;65463;43.864;20.136;2024-03-02T13:17:41;589.10;1280.00
55219;DHT22;65463;43.864;20.136;2024-03-02T13:20:07;589.50;1228.80
55219;DHT22;65463;43.864;20.136;2024-03-02T13:22:36;589.20;1254.40
55219;DHT22;65463;43.864;20.136;2024-03-02T13:25:02;614.40;1228.80
55219;DHT22;65463;43.864;20.136;2024-03-02T13:52:03;640.00;1177.60
55219;DHT22;65463;43.864;20.136;2024-03-02T13:54:39;614.40;1228.80
55219;DHT22;65463;43.864;20.136;2024-03-02T13:57:06;615.20;1177.60
55219;DHT22;65463;43.864;20.136;2024-03-02T13:59:36;614.80;1203.20
55219;DHT22;65463;43.864;20.136;2024-03-02T14:02:03;614.50;1228.80
55219;DHT22;65463;43.864;20.136;2024-03-02T14:04:35;589.70;1254.40
55219;DHT22;65463;43.864;20.136;2024-03-02T14:07:01;614.70;1228.80
55219;DHT22;65463;43.864;20.136;2024-03-02T14:09:28;615.20;1228.80
55219;DHT22;65463;43.864;20.136;2024-03-02T14:11:55;615.20;1203.20
55219;DHT22;65463;43.864;20.136;2024-03-02T14:14:21;614.70;1228.80
55219;DHT22;65463;43.864;20.136;2024-03-02T14:16:47;640.10;1177.60
55219;DHT22;65463;43.864;20.136;2024-03-02T14:19:13;614.70;1203.20
55219;DHT22;65463;43.864;20.136;2024-03-02T14:21:39;589.70;1228.80
55219;DHT22;65463;43.864;20.136;2024-03-02T14:24:05;589.30;1228.80
55219;DHT22;65463;43.864;20.136;2024-03-02T14:26:38;589.10;1254.40
55219;DHT22;65463;43.864;20.136;2024-03-02T14:29:04;588.90;1254.40
55219;DHT22;65463;43.864;20.136;2024-03-02T14:31:30;564.00;1280.00
55219;DHT22;65463;43.864;20.136;2024-03-02T14:33:57;563.90;1280.00
55219;DHT22;65463;43.864;20.136;2024-03-02T14:36:23;589.00;1254.40
55219;DHT22;65463;43.864;20.136;2024-03-02T14:38:49;589.30;1228.80
55219;DHT22;65463;43.864;20.136;2024-03-02T14:41:15;588.90;1254.40
55219;DHT22;65463;43.864;20.136;2024-03-02T14:43:41;589.40;1228.80
55219;DHT22;65463;43.864;20.136;2024-03-02T14:46:07;564.10;1228.80
55219;DHT22;65463;43.864;20.136;2024-03-02T21:26:03;307.70;2304.00
55219;DHT22;65463;43.864;20.136;2024-03-02T21:28:29;307.70;2304.00
55219;DHT22;65463;43.864;20.136;2024-03-02T21:30:55;307.70;2304.00
55219;DHT22;65463;43.864;20.136;2024-03-02T21:33:21;307.70;2304.00
55219;DHT22;65463;43.864;20.136;2024-03-02T21:35:47;307.70;2304.00
55219;DHT22;65463;43.864;20.136;2024-03-02T21:38:13;307.40;2304.00
55219;DHT22;65463;43.864;20.136;2024-03-02T21:40:39;307.20;2304.00
55219;DHT22;65463;43.864;20.136;2024-03-02T22:00:17;282.10;2278.40
55219;DHT22;65463;43.864;20.136;2024-03-02T22:02:43;282.10;2278.40
55219;DHT22;65463;43.864;20.136;2024-03-02T22:05:09;282.10;2278.40
55219;DHT22;65463;43.864;20.136;2024-03-02T22:07:35;282.00;2278.40
55219;DHT22;65463;43.864;20.136;2024-03-02T22:10:01;281.90;2278.40
55219;DHT22;65463;43.864;20.136;2024-03-02T22:12:27;281.90;2278.40
